createdAt,value
2023-04-11T00:01:16.692Z,51.77
2023-04-11T00:06:17.765Z,50.24
2023-04-11T00:11:18.863Z,51.46
2023-04-11T00:16:22.170Z,50.95
2023-04-11T00:21:21.219Z,48.59
2023-04-11T00:26:22.313Z,47.55
2023-04-11T00:31:23.387Z,49.08
2023-04-11T00:36:25.543Z,49.08
2023-04-11T00:41:25.622Z,48.90
2023-04-11T00:46:25.813Z,50.12
2023-04-11T00:51:24.960Z,49.58
2023-04-11T00:56:26.045Z,48.06
2023-04-11T01:01:28.163Z,46.01
2023-04-11T01:06:28.233Z,48.85
2023-04-11T01:11:27.306Z,46.84
2023-04-11T01:16:28.412Z,48.90
2023-04-11T01:21:29.555Z,50.34
2023-04-11T01:26:30.636Z,50.34
2023-04-11T01:31:32.695Z,51.18
2023-04-11T01:36:31.790Z,51.89
2023-04-11T01:41:33.841Z,51.18
2023-04-11T01:46:32.933Z,50.87
2023-04-11T01:51:35.022Z,50.04
2023-04-11T01:56:34.084Z,49.63
2023-04-11T02:01:35.201Z,50.75
2023-04-11T02:06:37.273Z,50.85
2023-04-11T02:11:36.342Z,49.43
2023-04-11T02:16:38.431Z,49.10
2023-04-11T02:21:39.517Z,50.93
2023-04-11T02:26:38.601Z,53.52
2023-04-11T02:31:40.885Z,52.50
2023-04-11T02:36:40.995Z,52.91
2023-04-11T02:41:40.060Z,52.53
2023-04-11T02:46:42.163Z,50.98
2023-04-11T02:51:41.250Z,50.26
2023-04-11T02:56:43.356Z,51.59
2023-04-11T03:01:41.579Z,50.87
2023-04-11T03:06:44.752Z,51.28
2023-04-11T03:11:46.908Z,51.59
2023-04-11T03:16:45.430Z,51.28
2023-04-11T03:21:45.537Z,50.57
2023-04-11T03:26:45.575Z,50.24
2023-04-11T03:31:44.741Z,50.24
2023-04-11T03:36:46.951Z,49.63
2023-04-11T03:41:46.029Z,48.59
2023-04-11T03:46:48.206Z,47.55
2023-04-11T03:51:47.255Z,51.23
2023-04-11T03:56:48.316Z,53.59
2023-04-11T04:01:49.488Z,54.33
2023-04-11T04:06:51.653Z,52.91
2023-04-11T04:11:50.688Z,55.55
2023-04-11T04:16:52.816Z,53.65
2023-04-11T04:21:54.933Z,54.16
2023-04-11T04:26:52.010Z,53.04
2023-04-11T04:31:54.110Z,51.28
2023-04-11T04:36:53.168Z,52.30
2023-04-11T04:41:55.246Z,54.24
2023-04-11T04:46:54.335Z,56.85
2023-04-11T04:51:55.417Z,61.22
2023-04-11T04:56:58.508Z,62.01
2023-04-11T05:01:58.648Z,64.45
2023-04-11T05:06:57.705Z,67.94
2023-04-11T05:11:58.802Z,72.28
2023-04-11T05:17:00.967Z,73.54
2023-04-11T05:22:01.044Z,71.60
2023-04-11T05:27:01.152Z,77.55
2023-04-11T05:32:00.194Z,81.18
2023-04-11T05:37:01.319Z,82.45
2023-04-11T05:42:02.663Z,85.30
2023-04-11T05:47:03.733Z,84.28
2023-04-11T05:52:05.834Z,87.32
2023-04-11T05:57:04.932Z,86.10
2023-04-11T06:02:07.058Z,85.79
2023-04-11T06:07:06.132Z,87.98
2023-04-11T06:12:07.193Z,91.29
2023-04-11T06:17:08.268Z,95.07
2023-04-11T06:22:09.359Z,94.56
2023-04-11T06:27:10.521Z,92.87
2023-04-11T06:32:11.687Z,93.28
2023-04-11T06:37:12.783Z,87.85
2023-04-11T06:42:14.874Z,90.00
2023-04-11T06:47:13.984Z,90.52
2023-04-11T06:52:15.090Z,94.40
2023-04-11T06:57:17.187Z,94.85
2023-04-11T07:02:17.354Z,93.52
2023-04-11T07:07:17.425Z,95.98
2023-04-11T07:12:17.544Z,96.03
2023-04-11T07:17:16.635Z,97.66
2023-04-11T07:22:17.773Z,97.82
2023-04-11T07:27:20.850Z,98.65
2023-04-11T07:32:19.998Z,98.85
2023-04-11T07:37:21.135Z,98.24
2023-04-11T07:42:22.210Z,98.74
2023-04-11T07:47:39.606Z,97.31
2023-04-11T07:52:24.711Z,97.78
2023-04-11T07:57:26.098Z,97.47
2023-04-11T08:02:27.965Z,97.16
2023-04-11T08:07:28.103Z,95.22
2023-04-11T08:12:27.181Z,96.08
2023-04-11T08:17:29.063Z,95.26
2023-04-11T08:22:28.471Z,95.94
2023-04-11T08:27:30.492Z,95.63
2023-04-11T08:32:30.608Z,95.89
2023-04-11T08:37:30.641Z,95.73
2023-04-11T08:42:29.788Z,96.04
2023-04-11T08:47:30.905Z,95.53
2023-04-11T08:52:31.961Z,95.43
2023-04-11T08:57:33.057Z,97.52
2023-04-11T09:02:34.284Z,97.44
2023-04-11T09:07:35.462Z,98.39
2023-04-11T09:12:38.489Z,98.76
2023-04-11T09:17:38.684Z,99.38
2023-04-11T09:22:37.692Z,99.42
2023-04-11T09:27:39.796Z,99.99
2023-04-11T09:32:38.944Z,98.61
2023-04-11T09:37:39.992Z,99.52
2023-04-11T09:42:42.061Z,99.32
2023-04-11T09:47:44.033Z,98.39
2023-04-11T09:52:41.679Z,98.13
2023-04-11T09:57:42.803Z,99.00
2023-04-11T10:02:44.112Z,99.21
2023-04-11T10:07:46.275Z,99.12
2023-04-11T10:12:47.347Z,96.78
2023-04-11T10:17:46.527Z,93.55
2023-04-11T10:22:48.601Z,91.09
2023-04-11T10:27:47.708Z,92.79
2023-04-11T10:32:48.886Z,90.34
2023-04-11T10:37:49.921Z,87.61
2023-04-11T10:42:51.040Z,86.38
2023-04-11T10:47:52.215Z,85.77
2023-04-11T10:52:53.430Z,84.88
2023-04-11T10:57:54.526Z,83.45
2023-04-11T11:02:56.784Z,83.96
2023-04-11T11:07:56.908Z,82.28
2023-04-11T11:12:56.087Z,80.40
2023-04-11T11:17:56.280Z,83.91
2023-04-11T11:22:57.380Z,74.02
2023-04-11T11:27:59.537Z,78.45
2023-04-11T11:32:58.686Z,74.15
2023-04-11T11:37:59.765Z,74.36
2023-04-11T11:43:00.893Z,71.18
2023-04-11T11:48:03.249Z,69.89
2023-04-11T11:53:04.355Z,66.41
2023-04-11T11:58:03.432Z,71.66
2023-04-11T12:03:04.684Z,69.61
2023-04-11T12:08:05.787Z,71.39
2023-04-11T12:13:06.924Z,71.45
2023-04-11T12:18:08.169Z,74.46
2023-04-11T12:23:09.308Z,74.29
2023-04-11T12:28:10.490Z,70.78
2023-04-11T12:33:12.602Z,72.52
2023-04-11T12:38:17.324Z,71.15
2023-04-11T12:43:14.090Z,71.25
2023-04-11T12:48:13.147Z,67.95
2023-04-11T12:53:14.265Z,68.63
2023-04-11T12:58:17.359Z,68.66
2023-04-11T13:03:16.800Z,71.19
2023-04-11T13:08:16.105Z,70.37
2023-04-11T13:13:19.208Z,68.87
2023-04-11T13:18:18.294Z,70.13
2023-04-11T13:23:19.705Z,70.23
2023-04-11T13:28:20.808Z,71.77
2023-04-11T13:33:21.950Z,71.73
2023-04-11T13:38:23.027Z,69.24
2023-04-11T13:43:24.132Z,68.63
2023-04-11T13:48:25.216Z,69.65
2023-04-11T13:53:27.310Z,69.28
2023-04-11T13:58:26.377Z,71.33
2023-04-11T14:03:27.614Z,71.87
2023-04-11T14:08:29.699Z,70.81
2023-04-11T14:13:28.854Z,73.03
2023-04-11T14:18:29.902Z,73.27
2023-04-11T14:23:31.048Z,74.29
2023-04-11T14:28:34.211Z,77.31
2023-04-11T14:33:34.333Z,71.77
2023-04-11T14:38:33.398Z,73.23
2023-04-11T14:43:35.515Z,70.85
2023-04-11T14:48:35.563Z,70.27
2023-04-11T14:53:34.671Z,66.05
2023-04-11T14:58:35.790Z,70.04
2023-04-11T15:03:41.471Z,68.54
2023-04-11T15:08:36.656Z,67.14
2023-04-11T15:13:38.837Z,66.57
2023-04-11T15:18:38.923Z,69.83
2023-04-11T15:23:38.986Z,68.95
2023-04-11T15:28:38.232Z,64.00
2023-04-11T15:33:39.337Z,61.83
2023-04-11T15:38:41.388Z,61.25
2023-04-11T15:43:52.760Z,64.25
2023-04-11T15:48:42.869Z,60.46
2023-04-11T15:53:42.017Z,63.54
2023-04-11T15:58:43.143Z,66.21
2023-04-11T16:03:44.338Z,67.22
2023-04-11T16:08:45.610Z,69.19
2023-04-11T16:13:46.679Z,69.43
2023-04-11T16:18:47.764Z,69.46
2023-04-11T16:23:49.805Z,69.70
2023-04-11T16:28:48.995Z,69.83
2023-04-11T16:33:50.039Z,70.48
2023-04-11T16:38:52.153Z,71.19
2023-04-11T16:43:52.224Z,70.23
2023-04-11T16:48:52.299Z,72.21
2023-04-11T16:53:52.754Z,71.70
2023-04-11T16:58:51.792Z,71.50
2023-04-11T17:03:53.054Z,70.98
2023-04-11T17:08:54.216Z,70.68
2023-04-11T17:13:55.681Z,71.94
2023-04-11T17:18:55.196Z,73.88
2023-04-11T17:23:57.508Z,74.43
2023-04-11T17:28:56.781Z,74.73
2023-04-11T17:33:59.244Z,74.76
2023-04-11T17:38:58.552Z,74.76
2023-04-11T17:43:59.865Z,75.21
2023-04-11T17:49:02.068Z,75.35
2023-04-11T17:54:01.149Z,75.76
2023-04-11T17:59:03.267Z,76.27
2023-04-11T18:04:02.697Z,76.06
2023-04-11T18:09:02.006Z,76.78
2023-04-11T18:14:03.130Z,77.84
2023-04-11T18:19:05.198Z,77.43
2023-04-11T18:24:05.749Z,77.33
2023-04-11T18:29:06.861Z,76.81
2023-04-11T18:34:06.882Z,76.92
2023-04-11T18:39:08.284Z,77.33
2023-04-11T18:44:09.848Z,76.92
2023-04-11T18:49:08.282Z,77.33
2023-04-11T18:54:07.720Z,77.23
2023-04-11T18:59:10.282Z,76.81
2023-04-11T19:04:08.451Z,77.02
2023-04-11T19:09:07.984Z,77.12
2023-04-11T19:14:09.226Z,77.73
2023-04-11T19:19:10.643Z,77.73
2023-04-11T19:24:10.839Z,77.73
2023-04-11T19:29:11.158Z,77.94
2023-04-11T19:34:10.412Z,77.94
2023-04-11T19:39:12.027Z,78.39
2023-04-11T19:44:11.499Z,79.72
2023-04-11T19:49:10.975Z,79.41
2023-04-11T19:54:13.620Z,79.58
2023-04-11T19:59:13.130Z,79.58
2023-04-11T20:04:13.192Z,80.19
2023-04-11T20:09:13.510Z,79.48
2023-04-11T20:14:14.940Z,79.48
2023-04-11T20:19:15.360Z,79.68
2023-04-11T20:24:14.769Z,80.51
2023-04-11T20:29:18.029Z,80.51
2023-04-11T20:34:17.500Z,80.30
2023-04-11T20:39:16.761Z,79.68
2023-04-11T20:44:17.884Z,80.30
2023-04-11T20:49:18.905Z,81.12
2023-04-11T20:54:19.985Z,82.08
2023-04-11T20:59:21.204Z,83.04
2023-04-11T21:04:22.420Z,84.58
2023-04-11T21:09:24.580Z,84.99
2023-04-11T21:14:23.645Z,85.71
2023-04-11T21:19:26.732Z,86.01
2023-04-11T21:24:26.819Z,85.19
2023-04-11T21:34:28.014Z,86.42
2023-04-11T21:39:27.126Z,87.49
2023-04-11T21:44:28.168Z,86.66
2023-04-11T21:49:29.254Z,87.70
2023-04-11T21:54:30.345Z,87.90
2023-04-11T21:59:31.550Z,88.51
2023-04-11T22:04:35.617Z,88.96
2023-04-11T22:09:34.545Z,90.09
2023-04-11T22:14:33.654Z,89.99
2023-04-11T22:19:34.705Z,90.61
2023-04-11T22:24:35.777Z,90.91
2023-04-11T22:29:36.850Z,91.22
2023-04-11T22:34:38.078Z,91.99
2023-04-11T22:39:39.299Z,91.88
2023-04-11T22:44:41.358Z,92.29
2023-04-11T22:49:40.941Z,92.50
2023-04-11T22:54:40.113Z,92.80
2023-04-11T22:59:42.197Z,92.70
2023-04-11T23:04:41.449Z,93.21
2023-04-11T23:09:42.486Z,92.40
2023-04-11T23:14:44.643Z,92.29
2023-04-11T23:19:43.733Z,92.50
2023-04-11T23:24:44.979Z,93.42
2023-04-11T23:29:47.133Z,95.10
2023-04-11T23:34:46.192Z,95.01
2023-04-11T23:39:49.280Z,95.31
2023-04-11T23:44:48.597Z,95.27
2023-04-11T23:49:49.658Z,94.59
2023-04-11T23:54:51.793Z,94.08
2023-04-11T23:59:50.860Z,94.18
